Terminal Aerodrome Forecast
Issued by NWS

Home | Current Version | Previous Version | Text Only | Print | Product List | Glossary On
Versions: 1 2 3 4 5 6 7 8 9 10 11 12
000
FTUS45 KREV 031727
TAFMMH
TAF
KMMH 031727Z 0318/0418 11009KT P6SM SCT200
     FM032100 27011G19KT P6SM SCT080 BKN180
     FM040400 29008KT P6SM SCT070 BKN100 OVC180
     FM041400 VRB04KT P6SM VCSH SCT040 BKN070 OVC140=

USA.gov is the U.S. government's official web portal to all federal, state and local government web resources and services.